Terminal Aerodrome Forecast
Issued by NWS

Home | Current Version | Previous Version | Graphics & Text | Print | Product List | Glossary On
Versions: 1 2 3 4 5 6 7 8 9 10 11 12 13 14 15
406
FTUS43 KABR 250533
TAFATY
TAF
KATY 250533Z 2506/2606 21009KT P6SM FEW003
     FM251200 27014G24KT P6SM OVC020
     FM251700 30023G32KT P6SM OVC035
     FM260100 31016KT P6SM SKC=

USA.gov is the U.S. government's official web portal to all federal, state and local government web resources and services.